WETO2: N Canadian River, Wetumka, OK

Data processed at Sat Nov 17 2018 21:32


All information presented herein is the property of the government of the United States of America and may be revised or deleted at any time without prior notice.
Dissemination of this information without the expressed written consent of the Public Affairs Office, Tulsa District U.S. Army Corps of Engineers is strictly prohibited.
These data are gathered electronically and, as presented, have not undergone any form of quality control. These data are not guaranteed to be valid or correct.
Go to home page.
Go to station list.
Go to home page.

Upstream stations:

Downstream station:
Previous Day
Next Day
Current Day
    
SHEF ID:       WETO2     North Canadian River near Wetumk
STATION TYPE:  

               PRECIP     STAGE  RIV-FLOW  BAT-LOAD
                   in        ft       cfs      volt
              Ccp-Rev   Ccp-Rev   Ccp-Rev   Ccp-Rev
(US/Central)
11/17 00:00      0.00      7.29       965     12.65
11/17 01:00      0.00      7.29       965     12.65
11/17 02:00      0.00      7.26       944     12.65
11/17 03:00      0.00      7.25       937     12.57
11/17 04:00      0.00      7.27       951     12.57
11/17 05:00      0.00      7.26       944     12.57
11/17 06:00      0.00      7.25       937     12.57
11/17 07:00      0.00      7.25       937     12.49
11/17 08:00      0.00      7.26       944     12.49
11/17 09:00      0.00      7.24       930     12.57
11/17 10:00      0.00      7.27       951     12.73
11/17 11:00      0.00      7.24       930     12.81
11/17 12:00      0.00      7.24       930     13.05
11/17 13:00      0.00      7.23       923     13.21
11/17 14:00      0.00      7.22       916     13.37
11/17 15:00      0.00      7.19       895     13.37
11/17 16:00      0.00      7.23       923     13.29
11/17 17:00      0.00      7.22       916     13.13
11/17 18:00      0.00      7.20       902     12.89
11/17 19:00      0.00      7.20       902     12.89
11/17 20:00      0.00      7.19       895     12.81
11/17 21:00      0.00      7.19       895     12.81
11/17 22:00      ----      ----      ----      ----
11/17 23:00      ----      ----      ----      ----